createdAt,value
2023-02-20T00:02:19.408Z,10.06
2023-02-20T00:07:41.372Z,10.08
2023-02-20T00:13:03.141Z,10.08
2023-02-20T00:18:24.897Z,10.01
2023-02-20T00:23:46.629Z,10.02
2023-02-20T00:29:08.342Z,9.91
2023-02-20T00:34:30.069Z,9.97
2023-02-20T00:39:51.805Z,9.98
2023-02-20T00:45:15.611Z,10.03
2023-02-20T00:50:37.340Z,10.09
2023-02-20T00:55:59.044Z,10.03
2023-02-20T01:01:20.840Z,10.00
2023-02-20T01:06:42.621Z,9.95
2023-02-20T01:12:04.510Z,9.87
2023-02-20T01:17:26.273Z,9.78
2023-02-20T01:22:47.992Z,9.70
2023-02-20T01:28:10.308Z,9.64
2023-02-20T01:33:31.998Z,9.75
2023-02-20T01:38:54.166Z,9.78
2023-02-20T01:44:29.138Z,9.74
2023-02-20T01:50:00.716Z,9.78
2023-02-20T01:55:47.601Z,9.62
2023-02-20T02:01:10.648Z,9.59
2023-02-20T02:06:36.522Z,9.43
2023-02-20T02:11:58.364Z,9.45
2023-02-20T02:17:34.365Z,9.38
2023-02-20T02:23:14.382Z,9.26
2023-02-20T02:29:00.244Z,9.43
2023-02-20T02:34:40.596Z,9.44
2023-02-20T02:40:14.224Z,9.48
2023-02-20T02:45:51.562Z,9.42
2023-02-20T02:51:19.071Z,9.19
2023-02-20T02:56:45.578Z,9.12
2023-02-20T03:02:13.077Z,9.09
2023-02-20T03:07:38.664Z,9.19
2023-02-20T03:13:05.329Z,9.15
2023-02-20T03:18:36.540Z,8.98
2023-02-20T03:24:02.937Z,8.98
2023-02-20T03:29:34.842Z,8.87
2023-02-20T03:35:16.410Z,8.92
2023-02-20T03:40:58.854Z,8.96
2023-02-20T03:46:24.356Z,9.06
2023-02-20T03:51:46.214Z,8.93
2023-02-20T03:57:18.483Z,9.04
2023-02-20T04:02:44.880Z,9.02
2023-02-20T04:08:14.010Z,8.94
2023-02-20T04:13:38.500Z,8.78
2023-02-20T04:19:00.209Z,8.77
2023-02-20T04:24:56.963Z,8.71
2023-02-20T04:30:19.116Z,8.73
2023-02-20T04:35:41.419Z,8.63
2023-02-20T04:41:03.145Z,8.59
2023-02-20T04:46:24.886Z,8.59
2023-02-20T04:51:46.601Z,8.60
2023-02-20T04:57:08.296Z,8.49
2023-02-20T05:02:30.013Z,8.29
2023-02-20T05:07:57.165Z,8.18
2023-02-20T05:13:18.855Z,8.18
2023-02-20T05:18:40.557Z,8.17
2023-02-20T05:24:03.143Z,8.17
2023-02-20T05:29:26.678Z,8.11
2023-02-20T05:34:48.798Z,8.03
2023-02-20T05:40:10.810Z,7.98
2023-02-20T05:45:32.509Z,8.01
2023-02-20T05:50:54.790Z,8.11
2023-02-20T05:56:16.555Z,8.09
2023-02-20T06:01:38.668Z,8.15
2023-02-20T06:07:00.353Z,8.07
2023-02-20T06:12:22.056Z,7.95
2023-02-20T06:17:44.801Z,8.06
2023-02-20T06:23:06.603Z,8.20
2023-02-20T06:28:28.339Z,8.07
2023-02-20T06:33:50.392Z,7.92
2023-02-20T06:39:14.084Z,7.76
2023-02-20T06:44:35.840Z,7.91
2023-02-20T06:49:57.530Z,7.92
2023-02-20T06:55:19.460Z,7.89
2023-02-20T07:00:41.210Z,7.75
2023-02-20T07:06:03.042Z,8.01
2023-02-20T07:11:24.793Z,7.92
2023-02-20T07:16:46.614Z,7.99
2023-02-20T07:22:08.294Z,8.05
2023-02-20T07:27:30.142Z,8.19
2023-02-20T07:32:52.147Z,8.28
2023-02-20T07:38:13.933Z,8.15
2023-02-20T07:43:35.629Z,8.09
2023-02-20T07:48:57.393Z,8.19
2023-02-20T07:54:20.138Z,8.32
2023-02-20T07:59:41.855Z,8.29
2023-02-20T08:05:03.616Z,8.47
2023-02-20T08:10:27.532Z,8.55
2023-02-20T08:15:49.327Z,8.48
2023-02-20T08:21:11.017Z,8.48
2023-02-20T08:26:34.657Z,8.60
2023-02-20T08:31:56.506Z,8.59
2023-02-20T08:37:18.277Z,8.74
2023-02-20T08:42:40.118Z,8.78
2023-02-20T08:48:02.203Z,8.81
2023-02-20T08:53:24.098Z,8.88
2023-02-20T08:58:45.807Z,8.98
2023-02-20T09:04:08.662Z,9.07
2023-02-20T09:09:31.049Z,9.12
2023-02-20T09:14:52.879Z,9.06
2023-02-20T09:20:15.734Z,9.16
2023-02-20T09:25:37.684Z,9.33
2023-02-20T09:31:00.560Z,9.37
2023-02-20T09:36:22.345Z,9.41
2023-02-20T09:42:11.514Z,9.58
2023-02-20T09:48:05.803Z,9.86
2023-02-20T09:53:32.600Z,10.07
2023-02-20T09:59:05.989Z,10.27
2023-02-20T10:05:01.607Z,10.37
2023-02-20T10:10:30.596Z,10.45
2023-02-20T10:16:27.479Z,10.47
2023-02-20T10:21:58.961Z,10.50
2023-02-20T10:27:40.241Z,10.50
2023-02-20T10:33:20.937Z,10.47
2023-02-20T10:38:50.211Z,10.52
2023-02-20T10:44:25.278Z,10.54
2023-02-20T10:50:07.897Z,10.64
2023-02-20T10:55:40.991Z,10.64
2023-02-20T11:01:06.881Z,10.80
2023-02-20T11:06:36.849Z,10.86
2023-02-20T11:11:59.454Z,10.97
2023-02-20T11:17:26.756Z,11.14
2023-02-20T11:22:50.052Z,11.35
2023-02-20T11:28:20.905Z,11.65
2023-02-20T11:33:47.856Z,11.97
2023-02-20T11:39:28.582Z,12.09
2023-02-20T11:45:12.310Z,12.13
2023-02-20T11:50:44.835Z,12.26
2023-02-20T11:56:18.917Z,12.33
2023-02-20T12:01:41.880Z,12.37
2023-02-20T12:07:19.860Z,12.47
2023-02-20T12:12:41.657Z,12.61
2023-02-20T12:18:16.955Z,12.81
2023-02-20T12:23:57.330Z,13.08
2023-02-20T12:29:24.659Z,13.42
2023-02-20T12:35:08.098Z,13.73
2023-02-20T12:40:38.976Z,13.93
2023-02-20T12:46:06.437Z,14.07
2023-02-20T12:51:48.854Z,14.20
2023-02-20T12:57:28.370Z,14.26
2023-02-20T13:02:55.118Z,14.29
2023-02-20T13:08:29.587Z,14.28
2023-02-20T13:14:06.499Z,14.25
2023-02-20T13:19:43.205Z,14.24
2023-02-20T13:25:39.512Z,14.22
2023-02-20T13:31:14.403Z,14.24
2023-02-20T13:36:36.119Z,14.23
2023-02-20T13:42:04.572Z,14.26
2023-02-20T13:47:37.992Z,14.30
2023-02-20T13:53:01.828Z,14.35
2023-02-20T13:58:27.109Z,14.30
2023-02-20T14:04:03.337Z,14.26
2023-02-20T14:09:31.533Z,14.30
2023-02-20T14:14:53.664Z,14.31
2023-02-20T14:20:32.343Z,14.34
2023-02-20T14:26:12.807Z,14.35
2023-02-20T14:31:36.427Z,14.42
2023-02-20T14:37:07.175Z,14.50
2023-02-20T14:42:28.930Z,14.59
2023-02-20T14:47:59.757Z,14.57
2023-02-20T14:53:21.474Z,14.61
2023-02-20T14:58:47.215Z,14.63
2023-02-20T15:04:15.163Z,14.63
2023-02-20T15:09:43.129Z,14.65
2023-02-20T15:15:13.232Z,14.64
2023-02-20T15:20:43.266Z,14.64
2023-02-20T15:26:31.628Z,14.57
2023-02-20T15:31:59.495Z,14.52
2023-02-20T15:37:38.304Z,14.52
2023-02-20T15:43:38.295Z,14.39
2023-02-20T15:48:57.289Z,14.27
2023-02-20T15:54:19.378Z,14.22
2023-02-20T15:59:41.152Z,14.13
2023-02-20T16:05:02.840Z,14.08
2023-02-20T16:10:25.733Z,13.98
2023-02-20T16:15:47.638Z,13.86
2023-02-20T16:21:14.517Z,13.77
2023-02-20T16:26:36.935Z,13.69
2023-02-20T16:32:01.602Z,13.59
2023-02-20T16:37:24.275Z,13.49
2023-02-20T16:42:46.543Z,13.41
2023-02-20T16:48:14.445Z,13.25
2023-02-20T16:53:36.130Z,13.22
2023-02-20T16:59:01.217Z,13.19
2023-02-20T17:04:23.123Z,13.05
2023-02-20T17:09:46.729Z,12.86
2023-02-20T17:15:09.417Z,12.58
2023-02-20T17:20:31.338Z,12.59
2023-02-20T17:25:53.200Z,12.54
2023-02-20T17:31:15.333Z,12.38
2023-02-20T17:36:37.284Z,12.36
2023-02-20T17:41:59.717Z,12.22
2023-02-20T17:47:22.718Z,12.09
2023-02-20T17:52:45.072Z,11.91
2023-02-20T17:58:06.764Z,11.80
2023-02-20T18:03:28.509Z,11.68
2023-02-20T18:08:50.675Z,11.48
2023-02-20T18:14:13.904Z,11.38
2023-02-20T18:19:35.662Z,11.31
2023-02-20T18:24:57.387Z,11.25
2023-02-20T18:30:19.965Z,11.10
2023-02-20T18:35:41.819Z,11.07
2023-02-20T18:41:04.086Z,10.94
2023-02-20T18:46:28.094Z,10.97
2023-02-20T18:51:49.775Z,10.82
2023-02-20T18:57:11.503Z,10.74
2023-02-20T19:02:33.446Z,10.52
2023-02-20T19:07:55.362Z,10.47
2023-02-20T19:13:17.223Z,10.39
2023-02-20T19:18:50.409Z,10.38
2023-02-20T19:24:12.866Z,10.31
2023-02-20T19:29:34.603Z,10.28
2023-02-20T19:34:56.356Z,10.25
2023-02-20T19:40:18.346Z,10.15
2023-02-20T19:45:40.358Z,10.05
2023-02-20T19:51:03.210Z,10.06
2023-02-20T19:56:25.702Z,10.07
2023-02-20T20:01:49.316Z,10.01
2023-02-20T20:07:11.058Z,9.89
2023-02-20T20:12:48.386Z,9.82
2023-02-20T20:18:12.079Z,9.82
2023-02-20T20:23:33.886Z,9.79
2023-02-20T20:28:55.999Z,9.78
2023-02-20T20:34:19.391Z,9.66
2023-02-20T20:39:41.352Z,9.68
2023-02-20T20:45:03.509Z,9.62
2023-02-20T20:50:28.671Z,9.48
2023-02-20T20:55:50.392Z,9.39
2023-02-20T21:01:12.700Z,9.32
2023-02-20T21:06:34.844Z,9.33
2023-02-20T21:11:56.647Z,9.36
2023-02-20T21:17:18.495Z,9.20
2023-02-20T21:22:40.321Z,9.16
2023-02-20T21:28:04.972Z,9.10
2023-02-20T21:33:26.654Z,9.16
2023-02-20T21:38:49.082Z,9.01
2023-02-20T21:44:28.038Z,9.14
2023-02-20T21:49:49.837Z,9.00
2023-02-20T21:55:14.505Z,8.76
2023-02-20T22:00:36.141Z,8.67
2023-02-20T22:05:57.825Z,8.49
2023-02-20T22:11:38.156Z,8.55
2023-02-20T22:17:18.609Z,8.67
2023-02-20T22:22:59.372Z,8.67
2023-02-20T22:28:39.418Z,8.38
2023-02-20T22:34:19.840Z,8.40
2023-02-20T22:40:00.270Z,8.36
2023-02-20T22:45:40.438Z,8.42
2023-02-20T22:51:20.494Z,8.44
2023-02-20T22:57:00.785Z,8.19
2023-02-20T23:02:40.895Z,8.22
2023-02-20T23:08:21.133Z,8.24
2023-02-20T23:14:04.820Z,8.07
2023-02-20T23:19:44.953Z,7.87
2023-02-20T23:25:25.685Z,7.89
2023-02-20T23:31:06.057Z,7.95
2023-02-20T23:36:46.333Z,8.04
2023-02-20T23:42:26.855Z,7.92
2023-02-20T23:48:07.853Z,8.01
2023-02-20T23:53:48.086Z,8.07
2023-02-20T23:59:29.131Z,8.00
